createdAt,value
2022-09-27T00:01:44.257Z,100076.06
2022-09-27T00:06:42.563Z,100112.19
2022-09-27T00:11:45.999Z,100094.53
2022-09-27T00:16:47.556Z,100097.53
2022-09-27T00:21:47.675Z,100118.13
2022-09-27T00:26:49.401Z,100075.81
2022-09-27T00:31:48.891Z,100065.91
2022-09-27T00:36:51.788Z,100066.47
2022-09-27T00:42:11.699Z,100071.34
2022-09-27T00:47:50.607Z,100027.91
2022-09-27T00:52:52.877Z,100063.97
2022-09-27T00:57:52.881Z,100032.97
2022-09-27T01:02:54.344Z,99996.47
2022-09-27T01:08:00.965Z,100022.78
2022-09-27T01:13:23.260Z,99980.38
2022-09-27T01:18:41.625Z,100041.19
2022-09-27T01:23:53.089Z,100053.13
2022-09-27T01:29:16.986Z,100031.69
2022-09-27T01:34:29.635Z,100070.22
2022-09-27T01:39:57.573Z,100016.56
2022-09-27T01:45:10.739Z,99989.03
2022-09-27T01:50:50.707Z,100031.75
2022-09-27T01:55:54.588Z,100009.88
2022-09-27T02:01:20.719Z,100007.59
2022-09-27T02:06:31.683Z,100015.97
2022-09-27T02:11:55.944Z,100015.16
2022-09-27T02:17:34.882Z,100033.47
2022-09-27T02:22:54.100Z,100028.34
2022-09-27T02:28:29.716Z,100010.53
2022-09-27T02:33:50.061Z,99982.47
2022-09-27T02:38:47.916Z,99962.81
2022-09-27T02:43:50.774Z,99980.31
2022-09-27T02:49:26.405Z,99995.06
2022-09-27T02:55:01.643Z,99986.56
2022-09-27T03:00:33.036Z,99986.94
2022-09-27T03:06:06.639Z,99938.38
2022-09-27T03:11:05.892Z,99960.16
2022-09-27T03:16:08.067Z,99973.25
2022-09-27T03:21:26.415Z,99977.25
2022-09-27T03:26:28.685Z,99957.44
2022-09-27T03:31:28.051Z,99959.50
2022-09-27T03:37:00.269Z,99949.41
2022-09-27T03:41:59.412Z,99938.19
2022-09-27T03:47:01.131Z,99958.50
2022-09-27T03:52:03.905Z,99950.00
2022-09-27T03:57:05.484Z,99944.41
2022-09-27T04:02:07.929Z,99941.41
2022-09-27T04:07:27.032Z,99943.00
2022-09-27T04:12:25.178Z,99958.69
2022-09-27T04:17:25.775Z,99929.94
2022-09-27T04:22:46.552Z,99925.19
2022-09-27T04:27:58.820Z,99938.19
2022-09-27T04:33:02.224Z,99912.03
2022-09-27T04:38:25.708Z,99931.38
2022-09-27T04:43:26.375Z,99909.03
2022-09-27T04:48:24.142Z,99891.41
2022-09-27T04:53:24.438Z,99864.47
2022-09-27T04:58:24.633Z,99867.19
2022-09-27T05:03:26.944Z,99866.25
2022-09-27T05:08:29.404Z,99873.38
2022-09-27T05:13:55.989Z,99859.97
2022-09-27T05:18:55.591Z,99853.91
2022-09-27T05:24:33.381Z,99846.31
2022-09-27T05:29:35.369Z,99851.72
2022-09-27T05:34:44.691Z,99845.72
2022-09-27T05:39:52.635Z,99886.84
2022-09-27T05:44:51.184Z,99890.63
2022-09-27T05:49:50.081Z,99876.22
2022-09-27T05:54:49.803Z,99908.28
2022-09-27T05:59:49.845Z,99920.41
2022-09-27T06:04:51.214Z,99881.19
2022-09-27T06:10:09.808Z,99870.38
2022-09-27T06:15:13.351Z,99863.69
2022-09-27T06:20:17.936Z,99867.63
2022-09-27T06:25:17.018Z,99899.75
2022-09-27T06:30:38.644Z,99895.81
2022-09-27T06:35:45.465Z,99874.03
2022-09-27T06:40:47.454Z,99879.22
2022-09-27T06:46:09.273Z,99889.44
2022-09-27T06:51:18.406Z,99850.94
2022-09-27T06:56:20.560Z,99834.56
2022-09-27T07:01:20.889Z,99887.50
2022-09-27T07:06:40.434Z,99856.41
2022-09-27T07:11:56.807Z,99862.69
2022-09-27T07:16:56.051Z,99875.81
2022-09-27T07:21:55.881Z,99885.38
2022-09-27T07:26:56.276Z,99869.72
2022-09-27T07:31:57.240Z,99884.94
2022-09-27T07:37:00.681Z,99843.34
2022-09-27T07:42:02.651Z,99847.38
2022-09-27T07:47:01.271Z,99808.81
2022-09-27T07:52:23.079Z,99821.75
2022-09-27T07:57:45.708Z,99867.34
2022-09-27T08:02:44.387Z,99828.56
2022-09-27T08:07:42.699Z,99832.75
2022-09-27T08:12:43.699Z,99856.78
2022-09-27T08:17:42.918Z,99871.97
2022-09-27T08:22:59.356Z,99875.47
2022-09-27T08:28:08.260Z,99902.50
2022-09-27T08:33:21.780Z,99875.94
2022-09-27T08:38:22.922Z,99879.47
2022-09-27T08:43:40.503Z,99923.50
2022-09-27T08:48:43.751Z,99881.41
2022-09-27T08:53:56.866Z,99867.06
2022-09-27T08:59:07.403Z,99840.59
2022-09-27T09:04:05.939Z,99834.91
2022-09-27T09:09:29.574Z,99894.41
2022-09-27T09:14:46.197Z,99876.09
2022-09-27T09:19:48.096Z,99857.53
2022-09-27T09:25:10.397Z,99825.63
2022-09-27T09:30:18.577Z,99858.06
2022-09-27T09:35:31.531Z,99791.72
2022-09-27T09:40:36.047Z,99810.06
2022-09-27T09:45:41.900Z,99837.72
2022-09-27T09:51:03.450Z,99850.53
2022-09-27T09:56:16.560Z,99855.91
2022-09-27T10:01:45.749Z,99835.50
2022-09-27T10:06:45.653Z,99825.03
2022-09-27T10:11:48.891Z,99780.47
2022-09-27T10:16:58.749Z,99781.66
2022-09-27T10:22:03.980Z,99775.84
2022-09-27T10:27:04.368Z,99772.41
2022-09-27T10:32:33.686Z,99759.63
2022-09-27T10:37:55.314Z,99751.41
2022-09-27T10:43:00.228Z,99781.81
2022-09-27T10:48:21.293Z,99727.88
2022-09-27T10:53:24.785Z,99729.53
2022-09-27T10:58:39.516Z,99773.84
2022-09-27T11:03:53.954Z,99774.44
2022-09-27T11:08:54.165Z,99739.88
2022-09-27T11:14:08.273Z,99769.69
2022-09-27T11:19:50.530Z,99772.94
2022-09-27T11:25:16.831Z,99793.19
2022-09-27T11:30:22.399Z,99746.22
2022-09-27T11:35:50.075Z,99740.38
2022-09-27T11:41:08.753Z,99753.75
2022-09-27T11:46:29.941Z,99748.47
2022-09-27T11:51:37.970Z,99772.94
2022-09-27T11:56:45.439Z,99778.50
2022-09-27T12:01:52.577Z,99724.09
2022-09-27T12:06:56.205Z,99743.19
2022-09-27T12:12:05.066Z,99737.06
2022-09-27T12:17:09.999Z,99736.50
2022-09-27T12:22:14.239Z,99740.25
2022-09-27T12:27:20.963Z,99748.19
2022-09-27T12:32:33.964Z,99754.81
2022-09-27T12:37:34.751Z,99714.00
2022-09-27T12:42:45.476Z,99755.69
2022-09-27T12:48:24.354Z,99733.38
2022-09-27T12:53:34.653Z,99746.91
2022-09-27T12:58:57.185Z,99735.75
2022-09-27T13:04:21.019Z,99735.50
2022-09-27T13:09:39.379Z,99723.53
2022-09-27T13:15:00.762Z,99673.63
2022-09-27T13:20:00.112Z,99687.66
2022-09-27T13:25:03.217Z,99634.03
2022-09-27T13:30:26.420Z,99676.59
2022-09-27T13:35:26.996Z,99656.78
2022-09-27T13:40:34.085Z,99640.16
2022-09-27T13:45:58.047Z,99699.56
2022-09-27T13:51:00.644Z,99653.00
2022-09-27T13:56:00.367Z,99665.25
2022-09-27T14:01:30.740Z,99627.81
2022-09-27T14:06:35.377Z,99655.38
2022-09-27T14:11:40.985Z,99643.13
2022-09-27T14:16:42.986Z,99649.22
2022-09-27T14:21:45.686Z,99676.81
2022-09-27T14:27:22.692Z,99669.38
2022-09-27T14:32:28.375Z,99639.53
2022-09-27T14:37:36.193Z,99626.84
2022-09-27T14:42:44.581Z,99611.47
2022-09-27T14:47:47.468Z,99599.81
2022-09-27T14:52:47.190Z,99618.16
2022-09-27T14:57:58.874Z,99638.31
2022-09-27T15:02:59.809Z,99623.19
2022-09-27T15:08:01.310Z,99647.31
2022-09-27T15:13:03.667Z,99632.44
2022-09-27T15:18:03.062Z,99651.31
2022-09-27T15:23:03.329Z,99626.84
2022-09-27T15:28:17.089Z,99664.47
2022-09-27T15:33:30.029Z,99642.91
2022-09-27T15:38:50.648Z,99654.66
2022-09-27T15:43:56.971Z,99650.34
2022-09-27T15:49:17.777Z,99691.47
2022-09-27T15:54:20.976Z,99641.53
2022-09-27T15:59:25.825Z,99618.69
2022-09-27T16:04:23.767Z,99632.16
2022-09-27T16:09:25.302Z,99673.94
2022-09-27T16:14:24.201Z,99608.09
2022-09-27T16:19:26.318Z,99636.66
2022-09-27T16:24:25.684Z,99641.41
2022-09-27T16:29:23.818Z,99607.94
2022-09-27T16:34:25.863Z,99641.69
2022-09-27T16:39:25.975Z,99588.84
2022-09-27T16:44:27.279Z,99621.44
2022-09-27T16:49:49.779Z,99657.25
2022-09-27T16:54:48.327Z,99607.03
2022-09-27T16:59:48.234Z,99595.94
2022-09-27T17:04:45.970Z,99650.50
2022-09-27T17:09:45.136Z,99645.59
2022-09-27T17:14:43.105Z,99621.56
2022-09-27T17:19:41.425Z,99634.34
2022-09-27T17:24:41.612Z,99636.13
2022-09-27T17:29:42.791Z,99624.63
2022-09-27T17:34:44.771Z,99633.22
2022-09-27T17:39:46.336Z,99654.72
2022-09-27T17:44:44.662Z,99646.63
2022-09-27T17:50:01.979Z,99669.16
2022-09-27T17:55:01.320Z,99665.22
2022-09-27T18:00:02.167Z,99656.63
2022-09-27T18:05:13.485Z,99682.66
2022-09-27T18:10:16.847Z,99701.94
2022-09-27T18:15:18.087Z,99694.53
2022-09-27T18:20:16.928Z,99678.00
2022-09-27T18:25:18.261Z,99689.25
2022-09-27T18:30:22.531Z,99673.28
2022-09-27T18:35:23.206Z,99690.78
2022-09-27T18:40:44.524Z,99710.84
2022-09-27T18:45:42.608Z,99750.78
2022-09-27T18:50:40.004Z,99683.22
2022-09-27T18:55:42.167Z,99719.81
2022-09-27T19:00:42.268Z,99715.97
2022-09-27T19:05:40.335Z,99706.31
2022-09-27T19:10:42.225Z,99698.44
2022-09-27T19:15:40.903Z,99722.00
2022-09-27T19:20:42.016Z,99723.72
2022-09-27T19:25:40.497Z,99751.44
2022-09-27T19:30:47.980Z,99766.47
2022-09-27T19:35:49.401Z,99765.78
2022-09-27T19:40:54.610Z,99792.66
2022-09-27T19:45:54.109Z,99789.44
2022-09-27T19:51:00.498Z,99881.00
2022-09-27T19:56:06.236Z,99876.63
2022-09-27T20:01:19.312Z,99898.25
2022-09-27T20:06:19.406Z,99852.91
2022-09-27T20:11:19.526Z,99847.66
2022-09-27T20:16:25.756Z,99805.38
2022-09-27T20:21:26.985Z,99835.38
2022-09-27T20:26:29.331Z,99828.28
2022-09-27T20:31:38.116Z,99821.50
2022-09-27T20:36:44.446Z,99816.13
2022-09-27T20:41:44.357Z,99781.28
2022-09-27T20:46:45.580Z,99793.75
2022-09-27T20:51:51.923Z,99806.41
2022-09-27T20:56:51.085Z,99796.16
2022-09-27T21:01:50.883Z,99794.22
2022-09-27T21:06:52.577Z,99790.97
2022-09-27T21:11:54.368Z,99752.00
2022-09-27T21:16:53.454Z,99802.69
2022-09-27T21:21:53.910Z,99777.94
2022-09-27T21:26:55.966Z,99753.56
2022-09-27T21:31:57.470Z,99755.41
2022-09-27T21:36:59.400Z,99790.00
2022-09-27T21:42:00.093Z,99765.72
2022-09-27T21:47:02.576Z,99779.88
2022-09-27T21:52:04.502Z,99776.06
2022-09-27T21:57:05.207Z,99787.78
2022-09-27T22:02:11.695Z,99803.19
2022-09-27T22:07:10.806Z,99764.84
2022-09-27T22:12:11.971Z,99790.91
2022-09-27T22:17:12.998Z,99765.91
2022-09-27T22:22:14.205Z,99765.84
2022-09-27T22:27:17.566Z,99783.94
2022-09-27T22:32:16.854Z,99791.81
2022-09-27T22:37:15.322Z,99780.19
2022-09-27T22:42:13.831Z,99786.53
2022-09-27T22:47:12.559Z,99753.56
2022-09-27T22:52:15.638Z,99763.69
2022-09-27T22:57:17.902Z,99771.13
2022-09-27T23:02:20.681Z,99777.31
2022-09-27T23:07:45.087Z,99810.34
2022-09-27T23:18:06.577Z,99779.38
2022-09-27T23:23:17.398Z,99787.97
2022-09-27T23:28:15.814Z,99756.06
2022-09-27T23:33:16.994Z,99793.91
2022-09-27T23:38:15.799Z,99799.44
2022-09-27T23:43:14.471Z,99813.19
2022-09-27T23:48:14.831Z,99791.53
2022-09-27T23:53:13.779Z,99785.47
2022-09-27T23:58:15.648Z,99798.88
